sensor_id;sensor_type;location;lat;lon;timestamp;pressure;altitude;pressure_sealevel;temperature;humidity
82375;BME280;72005;50.496;15.798;2024-03-29T00:00:55;94405.47;;;5.43;87.89
82375;BME280;72005;50.496;15.798;2024-03-29T00:03:41;94416.66;;;5.43;87.76
82375;BME280;72005;50.496;15.798;2024-03-29T00:06:07;94426.25;;;5.38;88.10
82375;BME280;72005;50.496;15.798;2024-03-29T00:08:33;94431.22;;;5.39;87.97
82375;BME280;72005;50.496;15.798;2024-03-29T00:10:59;94438.22;;;5.34;87.84
82375;BME280;72005;50.496;15.798;2024-03-29T00:13:24;94442.13;;;5.36;88.12
82375;BME280;72005;50.496;15.798;2024-03-29T00:15:50;94447.84;;;5.33;88.30
82375;BME280;72005;50.496;15.798;2024-03-29T00:18:16;94455.66;;;5.33;88.15
82375;BME280;72005;50.496;15.798;2024-03-29T00:20:42;94450.41;;;5.28;88.26
82375;BME280;72005;50.496;15.798;2024-03-29T00:23:08;94442.88;;;5.27;88.32
82375;BME280;72005;50.496;15.798;2024-03-29T00:25:34;94439.44;;;5.26;88.29
82375;BME280;72005;50.496;15.798;2024-03-29T00:27:59;94446.25;;;5.27;88.52
82375;BME280;72005;50.496;15.798;2024-03-29T00:30:26;94441.28;;;5.26;88.14
82375;BME280;72005;50.496;15.798;2024-03-29T00:32:52;94442.06;;;5.26;88.16
82375;BME280;72005;50.496;15.798;2024-03-29T00:35:18;94441.78;;;5.23;88.42
82375;BME280;72005;50.496;15.798;2024-03-29T00:37:45;94450.91;;;5.25;88.18
82375;BME280;72005;50.496;15.798;2024-03-29T00:40:11;94444.66;;;5.21;88.22
82375;BME280;72005;50.496;15.798;2024-03-29T00:42:37;94448.53;;;5.18;88.34
82375;BME280;72005;50.496;15.798;2024-03-29T00:45:03;94447.25;;;5.21;88.40
82375;BME280;72005;50.496;15.798;2024-03-29T00:47:29;94460.75;;;5.18;88.09
82375;BME280;72005;50.496;15.798;2024-03-29T00:49:54;94468.56;;;5.18;88.31
82375;BME280;72005;50.496;15.798;2024-03-29T00:52:20;94470.09;;;5.14;88.25
82375;BME280;72005;50.496;15.798;2024-03-29T00:54:46;94458.91;;;5.13;88.11
82375;BME280;72005;50.496;15.798;2024-03-29T00:57:11;94466.44;;;5.15;88.15
82375;BME280;72005;50.496;15.798;2024-03-29T00:59:40;94468.56;;;5.18;88.13
82375;BME280;72005;50.496;15.798;2024-03-29T01:02:05;94473.28;;;5.21;88.36
82375;BME280;72005;50.496;15.798;2024-03-29T01:04:31;94464.38;;;5.17;88.05
82375;BME280;72005;50.496;15.798;2024-03-29T01:06:57;94469.84;;;5.15;87.89
82375;BME280;72005;50.496;15.798;2024-03-29T01:09:22;94472.94;;;5.12;88.04
82375;BME280;72005;50.496;15.798;2024-03-29T01:11:50;94471.06;;;5.08;88.03
82375;BME280;72005;50.496;15.798;2024-03-29T01:14:16;94470.03;;;5.09;88.09
82375;BME280;72005;50.496;15.798;2024-03-29T01:16:42;94470.31;;;5.07;88.20
82375;BME280;72005;50.496;15.798;2024-03-29T01:19:07;94469.53;;;5.07;88.06
82375;BME280;72005;50.496;15.798;2024-03-29T01:21:35;94471.06;;;5.08;88.05
82375;BME280;72005;50.496;15.798;2024-03-29T01:24:01;94475.25;;;5.09;87.88
82375;BME280;72005;50.496;15.798;2024-03-29T01:26:27;94486.69;;;5.08;87.84
82375;BME280;72005;50.496;15.798;2024-03-29T01:28:53;94500.75;;;5.07;87.84
82375;BME280;72005;50.496;15.798;2024-03-29T01:31:18;94491.13;;;5.07;87.98
82375;BME280;72005;50.496;15.798;2024-03-29T01:33:44;94494.25;;;5.09;88.00
82375;BME280;72005;50.496;15.798;2024-03-29T01:36:10;94500.75;;;5.07;87.90
82375;BME280;72005;50.496;15.798;2024-03-29T01:38:35;94496.56;;;5.06;88.03
82375;BME280;72005;50.496;15.798;2024-03-29T01:41:02;94499.13;;;5.01;87.62
82375;BME280;72005;50.496;15.798;2024-03-29T01:43:28;94503.78;;;4.98;87.71
82375;BME280;72005;50.496;15.798;2024-03-29T01:45:55;94514.63;;;4.90;87.90
82375;BME280;72005;50.496;15.798;2024-03-29T01:48:24;94520.88;;;4.89;88.01
82375;BME280;72005;50.496;15.798;2024-03-29T01:50:53;94526.25;;;4.83;88.10
82375;BME280;72005;50.496;15.798;2024-03-29T01:53:21;94516.84;;;4.77;88.22
82375;BME280;72005;50.496;15.798;2024-03-29T01:55:47;94520.00;;;4.79;88.16
82375;BME280;72005;50.496;15.798;2024-03-29T01:58:14;94519.69;;;4.75;88.22
82375;BME280;72005;50.496;15.798;2024-03-29T02:00:54;94516.97;;;4.65;88.66
82375;BME280;72005;50.496;15.798;2024-03-29T02:03:21;94516.00;;;4.71;88.44
82375;BME280;72005;50.496;15.798;2024-03-29T02:05:48;94509.72;;;4.67;88.40
82375;BME280;72005;50.496;15.798;2024-03-29T02:08:14;94503.53;;;4.73;88.47
82375;BME280;72005;50.496;15.798;2024-03-29T02:10:41;94507.41;;;4.70;88.44
82375;BME280;72005;50.496;15.798;2024-03-29T02:13:07;94498.06;;;4.69;88.53
82375;BME280;72005;50.496;15.798;2024-03-29T02:15:33;94504.03;;;4.70;88.44
82375;BME280;72005;50.496;15.798;2024-03-29T02:17:59;94503.53;;;4.73;88.35
82375;BME280;72005;50.496;15.798;2024-03-29T02:20:25;94504.09;;;4.75;88.42
82375;BME280;72005;50.496;15.798;2024-03-29T02:22:53;94507.47;;;4.75;88.27
82375;BME280;72005;50.496;15.798;2024-03-29T02:25:19;94502.81;;;4.78;88.25
82375;BME280;72005;50.496;15.798;2024-03-29T02:27:46;94505.09;;;4.74;88.44
82375;BME280;72005;50.496;15.798;2024-03-29T02:30:16;94512.13;;;4.73;88.33
82375;BME280;72005;50.496;15.798;2024-03-29T02:32:42;94520.66;;;4.69;88.19
82375;BME280;72005;50.496;15.798;2024-03-29T02:35:08;94526.91;;;4.68;88.00
82375;BME280;72005;50.496;15.798;2024-03-29T02:37:37;94530.28;;;4.68;87.98
82375;BME280;72005;50.496;15.798;2024-03-29T02:40:04;94531.03;;;4.64;87.84
82375;BME280;72005;50.496;15.798;2024-03-29T02:42:31;94528.84;;;4.56;87.47
82375;BME280;72005;50.496;15.798;2024-03-29T02:44:56;94526.91;;;4.46;87.81
82375;BME280;72005;50.496;15.798;2024-03-29T02:47:22;94523.66;;;4.34;87.58
82375;BME280;72005;50.496;15.798;2024-03-29T02:49:48;94529.22;;;4.20;87.79
82375;BME280;72005;50.496;15.798;2024-03-29T02:52:14;94537.13;;;4.09;88.06
82375;BME280;72005;50.496;15.798;2024-03-29T02:54:41;94545.00;;;3.97;88.24
82375;BME280;72005;50.496;15.798;2024-03-29T02:57:08;94549.91;;;3.93;88.21
82375;BME280;72005;50.496;15.798;2024-03-29T02:59:33;94555.56;;;3.90;88.46
82375;BME280;72005;50.496;15.798;2024-03-29T03:01:59;94550.06;;;3.87;88.80
82375;BME280;72005;50.496;15.798;2024-03-29T03:04:25;94550.38;;;3.90;89.21
82375;BME280;72005;50.496;15.798;2024-03-29T03:06:51;94540.53;;;3.92;88.94
82375;BME280;72005;50.496;15.798;2024-03-29T03:09:17;94534.09;;;3.95;88.93
82375;BME280;72005;50.496;15.798;2024-03-29T03:12:01;94535.34;;;3.92;88.84
82375;BME280;72005;50.496;15.798;2024-03-29T03:14:27;94538.03;;;3.80;88.84
82375;BME280;72005;50.496;15.798;2024-03-29T03:16:53;94526.31;;;3.78;89.05
82375;BME280;72005;50.496;15.798;2024-03-29T03:19:18;94530.25;;;3.80;89.20
82375;BME280;72005;50.496;15.798;2024-03-29T03:21:44;94543.31;;;3.86;89.38
82375;BME280;72005;50.496;15.798;2024-03-29T03:24:10;94552.97;;;3.90;89.11
82375;BME280;72005;50.496;15.798;2024-03-29T03:26:37;94553.53;;;3.92;88.74
82375;BME280;72005;50.496;15.798;2024-03-29T03:29:04;94552.50;;;3.93;89.25
82375;BME280;72005;50.496;15.798;2024-03-29T03:31:29;94560.38;;;3.98;88.88
82375;BME280;72005;50.496;15.798;2024-03-29T03:33:55;94574.44;;;4.02;88.83
82375;BME280;72005;50.496;15.798;2024-03-29T03:36:21;94579.72;;;4.07;89.04
82375;BME280;72005;50.496;15.798;2024-03-29T03:38:47;94580.75;;;4.06;88.54
82375;BME280;72005;50.496;15.798;2024-03-29T03:41:12;94591.63;;;4.03;88.40
82375;BME280;72005;50.496;15.798;2024-03-29T03:43:38;94602.22;;;4.02;88.46
82375;BME280;72005;50.496;15.798;2024-03-29T03:46:04;94604.84;;;4.02;88.53
82375;BME280;72005;50.496;15.798;2024-03-29T03:48:30;94599.63;;;4.02;88.30
82375;BME280;72005;50.496;15.798;2024-03-29T03:50:56;94605.59;;;4.02;88.62
82375;BME280;72005;50.496;15.798;2024-03-29T03:53:22;94606.66;;;4.01;88.32
82375;BME280;72005;50.496;15.798;2024-03-29T03:55:48;94607.19;;;4.03;88.34
82375;BME280;72005;50.496;15.798;2024-03-29T03:58:13;94604.06;;;4.01;88.56
82375;BME280;72005;50.496;15.798;2024-03-29T04:00:39;94603.75;;;3.98;88.52
82375;BME280;72005;50.496;15.798;2024-03-29T04:03:05;94601.94;;;3.81;88.10
82375;BME280;72005;50.496;15.798;2024-03-29T04:05:31;94600.13;;;3.65;88.22
82375;BME280;72005;50.496;15.798;2024-03-29T04:07:57;94591.69;;;3.41;88.33
82375;BME280;72005;50.496;15.798;2024-03-29T04:10:24;94581.22;;;3.36;88.75
82375;BME280;72005;50.496;15.798;2024-03-29T04:12:52;94597.63;;;3.25;88.63
82375;BME280;72005;50.496;15.798;2024-03-29T04:15:18;94583.88;;;3.24;89.24
82375;BME280;72005;50.496;15.798;2024-03-29T04:17:44;94563.91;;;3.25;90.31
82375;BME280;72005;50.496;15.798;2024-03-29T04:20:10;94551.59;;;3.32;91.20
82375;BME280;72005;50.496;15.798;2024-03-29T04:22:35;94550.81;;;3.31;91.70
82375;BME280;72005;50.496;15.798;2024-03-29T04:25:01;94554.66;;;3.29;91.86
82375;BME280;72005;50.496;15.798;2024-03-29T04:27:27;94570.84;;;3.36;91.67
82375;BME280;72005;50.496;15.798;2024-03-29T04:29:54;94569.38;;;3.40;91.60
82375;BME280;72005;50.496;15.798;2024-03-29T04:32:20;94558.75;;;3.42;91.75
82375;BME280;72005;50.496;15.798;2024-03-29T04:34:47;94562.19;;;3.47;91.53
82375;BME280;72005;50.496;15.798;2024-03-29T04:37:14;94560.16;;;3.49;91.30
82375;BME280;72005;50.496;15.798;2024-03-29T04:39:42;94570.63;;;3.54;91.27
82375;BME280;72005;50.496;15.798;2024-03-29T04:42:08;94576.34;;;3.56;91.05
82375;BME280;72005;50.496;15.798;2024-03-29T04:44:33;94580.53;;;3.57;90.88
82375;BME280;72005;50.496;15.798;2024-03-29T04:46:59;94590.75;;;3.64;90.72
82375;BME280;72005;50.496;15.798;2024-03-29T04:49:25;94596.81;;;3.70;90.55
82375;BME280;72005;50.496;15.798;2024-03-29T04:51:59;94590.94;;;3.74;90.51
82375;BME280;72005;50.496;15.798;2024-03-29T04:54:26;94587.38;;;3.80;89.94
82375;BME280;72005;50.496;15.798;2024-03-29T04:56:52;94566.06;;;3.78;90.10
82375;BME280;72005;50.496;15.798;2024-03-29T04:59:18;94561.72;;;3.67;89.93
82375;BME280;72005;50.496;15.798;2024-03-29T05:01:47;94558.19;;;3.56;90.28
82375;BME280;72005;50.496;15.798;2024-03-29T05:04:16;94554.25;;;3.54;90.53
82375;BME280;72005;50.496;15.798;2024-03-29T05:06:44;94564.72;;;3.59;90.70
82375;BME280;72005;50.496;15.798;2024-03-29T05:09:11;94548.84;;;3.55;91.09
82375;BME280;72005;50.496;15.798;2024-03-29T05:11:39;94555.13;;;3.59;91.31
82375;BME280;72005;50.496;15.798;2024-03-29T05:14:05;94562.59;;;3.56;91.36
82375;BME280;72005;50.496;15.798;2024-03-29T05:16:31;94559.69;;;3.52;91.63
82375;BME280;72005;50.496;15.798;2024-03-29T05:18:57;94566.78;;;3.57;91.70
82375;BME280;72005;50.496;15.798;2024-03-29T05:21:23;94578.56;;;3.65;91.41
82375;BME280;72005;50.496;15.798;2024-03-29T05:23:49;94587.47;;;3.69;91.56
82375;BME280;72005;50.496;15.798;2024-03-29T05:26:14;94598.84;;;3.68;92.08
82375;BME280;72005;50.496;15.798;2024-03-29T05:28:40;94600.97;;;3.71;91.42
82375;BME280;72005;50.496;15.798;2024-03-29T05:31:13;94605.19;;;3.72;91.51
82375;BME280;72005;50.496;15.798;2024-03-29T05:33:42;94612.31;;;3.65;91.50
82375;BME280;72005;50.496;15.798;2024-03-29T05:36:08;94602.41;;;3.61;91.99
82375;BME280;72005;50.496;15.798;2024-03-29T05:38:37;94613.81;;;3.60;92.04
82375;BME280;72005;50.496;15.798;2024-03-29T05:41:03;94610.66;;;3.58;92.28
82375;BME280;72005;50.496;15.798;2024-03-29T05:43:29;94616.63;;;3.59;92.29
82375;BME280;72005;50.496;15.798;2024-03-29T05:45:55;94616.16;;;3.62;92.46
82375;BME280;72005;50.496;15.798;2024-03-29T05:48:21;94618.28;;;3.65;92.77
82375;BME280;72005;50.496;15.798;2024-03-29T05:50:46;94611.16;;;3.72;92.45
82375;BME280;72005;50.496;15.798;2024-03-29T05:53:12;94609.97;;;3.80;92.52
82375;BME280;72005;50.496;15.798;2024-03-29T05:55:38;94603.09;;;3.91;92.27
82375;BME280;72005;50.496;15.798;2024-03-29T05:58:04;94599.94;;;4.05;92.21
82375;BME280;72005;50.496;15.798;2024-03-29T06:00:32;94609.72;;;4.15;92.66
82375;BME280;72005;50.496;15.798;2024-03-29T06:03:03;94600.53;;;4.29;92.57
82375;BME280;72005;50.496;15.798;2024-03-29T06:05:29;94603.22;;;4.35;92.96
82375;BME280;72005;50.496;15.798;2024-03-29T06:07:55;94610.50;;;4.55;93.40
82375;BME280;72005;50.496;15.798;2024-03-29T06:10:21;94605.22;;;5.48;93.87
82375;BME280;72005;50.496;15.798;2024-03-29T06:12:46;94602.91;;;6.63;91.20
82375;BME280;72005;50.496;15.798;2024-03-29T06:15:12;94597.59;;;7.16;87.36
82375;BME280;72005;50.496;15.798;2024-03-29T06:17:57;94595.84;;;7.62;83.58
82375;BME280;72005;50.496;15.798;2024-03-29T06:20:24;94605.22;;;8.20;83.41
82375;BME280;72005;50.496;15.798;2024-03-29T06:22:50;94615.06;;;8.74;79.94
82375;BME280;72005;50.496;15.798;2024-03-29T06:25:16;94624.69;;;9.43;79.21
82375;BME280;72005;50.496;15.798;2024-03-29T06:27:42;94626.47;;;9.92;76.09
82375;BME280;72005;50.496;15.798;2024-03-29T06:30:14;94627.84;;;10.48;75.05
82375;BME280;72005;50.496;15.798;2024-03-29T06:32:41;94631.28;;;10.97;74.22
82375;BME280;72005;50.496;15.798;2024-03-29T06:35:07;94642.13;;;10.66;71.89
82375;BME280;72005;50.496;15.798;2024-03-29T06:37:33;94644.53;;;9.99;70.50
82375;BME280;72005;50.496;15.798;2024-03-29T06:39:59;94641.97;;;9.49;72.82
82375;BME280;72005;50.496;15.798;2024-03-29T06:42:25;94647.47;;;8.98;74.06
82375;BME280;72005;50.496;15.798;2024-03-29T06:44:50;94650.97;;;8.63;74.65
82375;BME280;72005;50.496;15.798;2024-03-29T06:47:18;94651.25;;;8.05;75.17
82375;BME280;72005;50.496;15.798;2024-03-29T06:49:44;94636.88;;;7.72;75.71
82375;BME280;72005;50.496;15.798;2024-03-29T06:52:11;94635.53;;;7.44;77.25
82375;BME280;72005;50.496;15.798;2024-03-29T06:54:36;94644.63;;;7.36;77.85
82375;BME280;72005;50.496;15.798;2024-03-29T06:57:02;94648.25;;;7.15;77.65
82375;BME280;72005;50.496;15.798;2024-03-29T06:59:28;94643.34;;;7.34;78.72
82375;BME280;72005;50.496;15.798;2024-03-29T07:01:54;94647.03;;;7.48;77.95
82375;BME280;72005;50.496;15.798;2024-03-29T07:04:24;94653.06;;;7.59;77.29
82375;BME280;72005;50.496;15.798;2024-03-29T07:06:51;94643.34;;;7.39;76.54
82375;BME280;72005;50.496;15.798;2024-03-29T07:09:21;94651.94;;;7.29;77.06
82375;BME280;72005;50.496;15.798;2024-03-29T07:11:48;94649.59;;;7.33;77.88
82375;BME280;72005;50.496;15.798;2024-03-29T07:14:15;94665.78;;;7.30;78.07
82375;BME280;72005;50.496;15.798;2024-03-29T07:16:42;94668.50;;;6.87;78.55
82375;BME280;72005;50.496;15.798;2024-03-29T07:19:07;94666.72;;;6.98;79.42
82375;BME280;72005;50.496;15.798;2024-03-29T07:21:33;94666.50;;;7.10;79.94
82375;BME280;72005;50.496;15.798;2024-03-29T07:23:59;94684.25;;;7.08;80.31
82375;BME280;72005;50.496;15.798;2024-03-29T07:26:25;94690.81;;;7.15;80.04
82375;BME280;72005;50.496;15.798;2024-03-29T07:28:50;94706.81;;;7.34;80.22
82375;BME280;72005;50.496;15.798;2024-03-29T07:31:16;94714.69;;;7.50;79.87
82375;BME280;72005;50.496;15.798;2024-03-29T07:33:42;94694.06;;;7.48;79.52
82375;BME280;72005;50.496;15.798;2024-03-29T07:36:08;94691.75;;;7.57;79.08
82375;BME280;72005;50.496;15.798;2024-03-29T07:38:37;94676.34;;;7.81;79.66
82375;BME280;72005;50.496;15.798;2024-03-29T07:41:05;94663.31;;;8.06;78.99
82375;BME280;72005;50.496;15.798;2024-03-29T07:43:51;94663.28;;;8.17;76.44
82375;BME280;72005;50.496;15.798;2024-03-29T07:46:17;94658.56;;;8.34;77.30
82375;BME280;72005;50.496;15.798;2024-03-29T07:48:43;94664.31;;;8.62;77.82
82375;BME280;72005;50.496;15.798;2024-03-29T07:51:09;94672.63;;;8.89;76.53
82375;BME280;72005;50.496;15.798;2024-03-29T07:53:35;94673.59;;;9.14;75.95
82375;BME280;72005;50.496;15.798;2024-03-29T07:56:01;94669.28;;;9.38;75.57
82375;BME280;72005;50.496;15.798;2024-03-29T07:58:26;94666.81;;;9.62;73.98
82375;BME280;72005;50.496;15.798;2024-03-29T08:00:52;94667.72;;;9.82;72.34
82375;BME280;72005;50.496;15.798;2024-03-29T08:03:19;94666.97;;;9.76;70.82
82375;BME280;72005;50.496;15.798;2024-03-29T08:05:58;94674.28;;;9.84;71.36
82375;BME280;72005;50.496;15.798;2024-03-29T08:08:24;94681.81;;;9.91;71.13
82375;BME280;72005;50.496;15.798;2024-03-29T08:10:50;94670.53;;;9.96;70.91
82375;BME280;72005;50.496;15.798;2024-03-29T08:13:16;94675.47;;;10.02;71.86
82375;BME280;72005;50.496;15.798;2024-03-29T08:15:46;94669.28;;;10.22;71.42
82375;BME280;72005;50.496;15.798;2024-03-29T08:18:12;94672.81;;;10.42;71.73
82375;BME280;72005;50.496;15.798;2024-03-29T08:20:38;94673.19;;;10.59;70.73
82375;BME280;72005;50.496;15.798;2024-03-29T08:23:04;94666.53;;;10.67;70.90
82375;BME280;72005;50.496;15.798;2024-03-29T08:25:30;94665.75;;;10.66;69.85
82375;BME280;72005;50.496;15.798;2024-03-29T08:27:55;94658.50;;;10.82;69.84
82375;BME280;72005;50.496;15.798;2024-03-29T08:30:25;94663.94;;;10.91;69.38
82375;BME280;72005;50.496;15.798;2024-03-29T08:32:51;94668.13;;;10.92;67.83
82375;BME280;72005;50.496;15.798;2024-03-29T08:35:18;94674.22;;;11.11;69.83
82375;BME280;72005;50.496;15.798;2024-03-29T08:37:45;94660.66;;;11.23;67.63
82375;BME280;72005;50.496;15.798;2024-03-29T08:40:11;94650.06;;;11.09;66.50
82375;BME280;72005;50.496;15.798;2024-03-29T08:42:37;94659.19;;;11.36;68.43
82375;BME280;72005;50.496;15.798;2024-03-29T08:45:03;94659.97;;;11.36;67.14
82375;BME280;72005;50.496;15.798;2024-03-29T08:47:31;94648.53;;;11.46;68.04
82375;BME280;72005;50.496;15.798;2024-03-29T08:49:57;94641.50;;;11.41;65.06
82375;BME280;72005;50.496;15.798;2024-03-29T08:52:23;94642.28;;;11.61;67.48
82375;BME280;72005;50.496;15.798;2024-03-29T08:54:49;94653.22;;;11.68;66.73
82375;BME280;72005;50.496;15.798;2024-03-29T08:57:14;94645.28;;;11.73;67.03
82375;BME280;72005;50.496;15.798;2024-03-29T08:59:40;94632.19;;;11.68;65.93
82375;BME280;72005;50.496;15.798;2024-03-29T09:02:07;94639.75;;;11.74;66.34
82375;BME280;72005;50.496;15.798;2024-03-29T09:04:33;94641.94;;;11.48;64.60
82375;BME280;72005;50.496;15.798;2024-03-29T09:07:02;94628.84;;;11.62;65.37
82375;BME280;72005;50.496;15.798;2024-03-29T09:09:31;94642.75;;;11.87;64.54
82375;BME280;72005;50.496;15.798;2024-03-29T09:11:57;94652.69;;;11.90;64.30
82375;BME280;72005;50.496;15.798;2024-03-29T09:14:24;94649.78;;;11.91;64.38
82375;BME280;72005;50.496;15.798;2024-03-29T09:16:50;94667.91;;;11.93;63.36
82375;BME280;72005;50.496;15.798;2024-03-29T09:19:16;94664.25;;;12.08;64.49
82375;BME280;72005;50.496;15.798;2024-03-29T09:21:42;94665.88;;;12.23;62.67
82375;BME280;72005;50.496;15.798;2024-03-29T09:24:08;94667.00;;;12.16;62.53
82375;BME280;72005;50.496;15.798;2024-03-29T09:26:34;94659.22;;;12.11;62.89
82375;BME280;72005;50.496;15.798;2024-03-29T09:29:00;94656.16;;;12.37;63.49
82375;BME280;72005;50.496;15.798;2024-03-29T09:31:26;94646.84;;;12.58;64.06
82375;BME280;72005;50.496;15.798;2024-03-29T09:33:52;94652.91;;;12.73;63.25
82375;BME280;72005;50.496;15.798;2024-03-29T09:36:23;94641.22;;;12.93;62.63
82375;BME280;72005;50.496;15.798;2024-03-29T09:38:52;94649.81;;;13.12;61.66
82375;BME280;72005;50.496;15.798;2024-03-29T09:41:19;94637.31;;;13.04;59.76
82375;BME280;72005;50.496;15.798;2024-03-29T09:43:47;94628.50;;;13.08;59.65
82375;BME280;72005;50.496;15.798;2024-03-29T09:46:14;94628.72;;;13.26;60.19
82375;BME280;72005;50.496;15.798;2024-03-29T09:48:41;94621.00;;;13.29;59.36
82375;BME280;72005;50.496;15.798;2024-03-29T09:51:08;94621.78;;;13.44;59.25
82375;BME280;72005;50.496;15.798;2024-03-29T09:53:36;94621.50;;;13.18;56.89
82375;BME280;72005;50.496;15.798;2024-03-29T09:56:06;94619.75;;;13.27;57.86
82375;BME280;72005;50.496;15.798;2024-03-29T09:58:34;94613.09;;;13.29;61.53
82375;BME280;72005;50.496;15.798;2024-03-29T10:01:03;94615.44;;;13.03;57.27
82375;BME280;72005;50.496;15.798;2024-03-29T10:03:31;94614.06;;;13.06;58.86
82375;BME280;72005;50.496;15.798;2024-03-29T10:05:58;94607.81;;;12.88;59.34
82375;BME280;72005;50.496;15.798;2024-03-29T10:08:28;94604.13;;;12.61;58.70
82375;BME280;72005;50.496;15.798;2024-03-29T10:10:58;94610.16;;;12.76;58.42
82375;BME280;72005;50.496;15.798;2024-03-29T10:13:24;94602.38;;;12.98;60.18
82375;BME280;72005;50.496;15.798;2024-03-29T10:15:54;94606.94;;;12.79;56.81
82375;BME280;72005;50.496;15.798;2024-03-29T10:18:24;94604.72;;;12.72;55.70
82375;BME280;72005;50.496;15.798;2024-03-29T10:21:06;94590.66;;;12.77;58.55
82375;BME280;72005;50.496;15.798;2024-03-29T10:23:34;94586.53;;;12.98;58.68
82375;BME280;72005;50.496;15.798;2024-03-29T10:26:03;94585.97;;;13.01;57.77
82375;BME280;72005;50.496;15.798;2024-03-29T10:28:33;94592.78;;;13.02;56.17
82375;BME280;72005;50.496;15.798;2024-03-29T10:31:04;94577.16;;;13.06;55.80
82375;BME280;72005;50.496;15.798;2024-03-29T10:33:32;94576.34;;;13.19;56.56
82375;BME280;72005;50.496;15.798;2024-03-29T10:36:02;94570.16;;;13.01;51.48
82375;BME280;72005;50.496;15.798;2024-03-29T10:38:32;94565.38;;;13.03;52.97
82375;BME280;72005;50.496;15.798;2024-03-29T10:40:57;94561.50;;;13.23;54.81
82375;BME280;72005;50.496;15.798;2024-03-29T10:43:24;94548.53;;;13.27;54.10
82375;BME280;72005;50.496;15.798;2024-03-29T10:45:50;94545.38;;;13.25;52.62
82375;BME280;72005;50.496;15.798;2024-03-29T10:48:20;94540.38;;;13.37;54.11
82375;BME280;72005;50.496;15.798;2024-03-29T10:50:47;94541.97;;;13.38;51.46
82375;BME280;72005;50.496;15.798;2024-03-29T10:53:14;94537.00;;;13.59;54.27
82375;BME280;72005;50.496;15.798;2024-03-29T10:55:42;94541.84;;;13.66;52.74
82375;BME280;72005;50.496;15.798;2024-03-29T10:58:10;94530.94;;;13.81;53.20
82375;BME280;72005;50.496;15.798;2024-03-29T11:00:46;94530.81;;;13.86;49.68
82375;BME280;72005;50.496;15.798;2024-03-29T11:03:18;94541.34;;;13.86;50.93
82375;BME280;72005;50.496;15.798;2024-03-29T11:05:50;94521.94;;;13.82;51.86
82375;BME280;72005;50.496;15.798;2024-03-29T11:08:24;94529.44;;;14.20;53.81
82375;BME280;72005;50.496;15.798;2024-03-29T11:10:57;94524.72;;;14.39;49.87
82375;BME280;72005;50.496;15.798;2024-03-29T11:13:32;94516.88;;;14.57;52.18
82375;BME280;72005;50.496;15.798;2024-03-29T11:16:00;94507.13;;;14.75;48.61
82375;BME280;72005;50.496;15.798;2024-03-29T11:18:27;94492.06;;;14.93;49.96
82375;BME280;72005;50.496;15.798;2024-03-29T11:20:55;94509.28;;;14.73;46.01
82375;BME280;72005;50.496;15.798;2024-03-29T11:23:22;94502.28;;;14.59;43.56
82375;BME280;72005;50.496;15.798;2024-03-29T11:25:55;94501.19;;;14.69;44.14
82375;BME280;72005;50.496;15.798;2024-03-29T11:28:32;94492.34;;;14.65;44.47
82375;BME280;72005;50.496;15.798;2024-03-29T11:31:08;94502.56;;;14.58;43.01
82375;BME280;72005;50.496;15.798;2024-03-29T11:36:21;94490.16;;;14.67;45.82
82375;BME280;72005;50.496;15.798;2024-03-29T11:38:51;94517.06;;;14.69;46.22
82375;BME280;72005;50.496;15.798;2024-03-29T11:41:19;94490.44;;;14.57;44.23
82375;BME280;72005;50.496;15.798;2024-03-29T11:43:47;94497.50;;;14.79;47.41
82375;BME280;72005;50.496;15.798;2024-03-29T11:46:13;94492.53;;;14.86;45.42
82375;BME280;72005;50.496;15.798;2024-03-29T11:48:41;94499.22;;;14.83;46.22
82375;BME280;72005;50.496;15.798;2024-03-29T11:51:08;94496.56;;;14.83;45.42
82375;BME280;72005;50.496;15.798;2024-03-29T11:53:36;94493.00;;;14.79;45.51
82375;BME280;72005;50.496;15.798;2024-03-29T11:56:03;94492.25;;;14.96;46.75
82375;BME280;72005;50.496;15.798;2024-03-29T11:58:31;94503.13;;;14.95;45.98
82375;BME280;72005;50.496;15.798;2024-03-29T12:00:58;94488.97;;;14.82;46.19
82375;BME280;72005;50.496;15.798;2024-03-29T12:03:30;94482.41;;;14.79;46.28
82375;BME280;72005;50.496;15.798;2024-03-29T12:05:58;94479.16;;;14.82;47.10
82375;BME280;72005;50.496;15.798;2024-03-29T12:08:29;94486.13;;;14.78;47.20
82375;BME280;72005;50.496;15.798;2024-03-29T12:10:55;94484.59;;;14.77;48.51
82375;BME280;72005;50.496;15.798;2024-03-29T12:13:21;94485.50;;;14.73;48.00
82375;BME280;72005;50.496;15.798;2024-03-29T12:15:47;94482.69;;;14.69;47.70
82375;BME280;72005;50.496;15.798;2024-03-29T12:18:13;94479.59;;;14.76;49.43
82375;BME280;72005;50.496;15.798;2024-03-29T12:20:42;94478.41;;;14.91;49.60
82375;BME280;72005;50.496;15.798;2024-03-29T12:23:09;94489.41;;;14.93;49.20
82375;BME280;72005;50.496;15.798;2024-03-29T12:25:37;94474.81;;;14.95;48.86
82375;BME280;72005;50.496;15.798;2024-03-29T12:28:04;94471.88;;;14.97;47.86
82375;BME280;72005;50.496;15.798;2024-03-29T12:30:30;94472.78;;;15.09;49.17
82375;BME280;72005;50.496;15.798;2024-03-29T12:33:02;94485.88;;;15.06;48.27
82375;BME280;72005;50.496;15.798;2024-03-29T12:35:28;94478.53;;;14.85;48.49
82375;BME280;72005;50.496;15.798;2024-03-29T12:38:01;94482.59;;;14.92;49.03
82375;BME280;72005;50.496;15.798;2024-03-29T12:40:28;94479.66;;;15.02;49.99
82375;BME280;72005;50.496;15.798;2024-03-29T12:42:56;94475.75;;;15.08;49.98
82375;BME280;72005;50.496;15.798;2024-03-29T12:45:22;94470.91;;;15.10;50.27
82375;BME280;72005;50.496;15.798;2024-03-29T12:47:49;94493.47;;;15.07;49.91
82375;BME280;72005;50.496;15.798;2024-03-29T12:50:31;94507.31;;;14.96;50.25
82375;BME280;72005;50.496;15.798;2024-03-29T12:53:00;94511.97;;;14.90;50.25
82375;BME280;72005;50.496;15.798;2024-03-29T12:55:27;94502.59;;;14.66;49.35
82375;BME280;72005;50.496;15.798;2024-03-29T12:57:56;94502.31;;;14.77;51.16
82375;BME280;72005;50.496;15.798;2024-03-29T13:00:23;94510.34;;;14.63;50.66